createdAt,value
2018-12-05T00:01:36.673Z,9.11
2018-12-05T00:04:03.009Z,9.09
2018-12-05T00:06:29.330Z,9.10
2018-12-05T00:08:55.616Z,9.10
2018-12-05T00:11:21.911Z,9.10
2018-12-05T00:13:48.207Z,9.09
2018-12-05T00:16:14.504Z,9.08
2018-12-05T00:18:40.793Z,9.08
2018-12-05T00:21:07.097Z,9.08
2018-12-05T00:23:33.389Z,9.07
2018-12-05T00:25:59.688Z,9.07
2018-12-05T00:28:25.990Z,9.07
2018-12-05T00:30:52.297Z,9.06
2018-12-05T00:33:18.576Z,9.05
2018-12-05T00:35:44.871Z,9.05
2018-12-05T00:38:11.170Z,9.05
2018-12-05T00:40:37.468Z,9.05
2018-12-05T00:43:03.755Z,9.06
2018-12-05T00:45:30.059Z,9.06
2018-12-05T00:47:56.344Z,9.04
2018-12-05T00:50:22.651Z,9.04
2018-12-05T00:52:48.951Z,9.04
2018-12-05T00:55:15.252Z,9.03
2018-12-05T00:57:41.538Z,9.03
2018-12-05T01:00:07.856Z,9.02
2018-12-05T01:02:34.134Z,9.02
2018-12-05T01:05:00.447Z,9.01
2018-12-05T01:07:26.737Z,9.00
2018-12-05T01:09:53.044Z,8.99
2018-12-05T01:12:19.328Z,8.99
2018-12-05T01:14:45.626Z,8.97
2018-12-05T01:17:11.921Z,8.97
2018-12-05T01:19:38.210Z,8.97
2018-12-05T01:22:04.512Z,8.96
2018-12-05T01:24:30.819Z,8.97
2018-12-05T01:26:57.099Z,8.96
2018-12-05T01:29:23.396Z,8.95
2018-12-05T01:31:49.697Z,8.94
2018-12-05T01:34:16.006Z,8.95
2018-12-05T01:36:42.348Z,8.95
2018-12-05T01:39:08.662Z,8.95
2018-12-05T01:41:34.978Z,8.95
2018-12-05T01:44:01.329Z,8.94
2018-12-05T01:46:27.617Z,8.95
2018-12-05T01:48:53.924Z,8.93
2018-12-05T01:51:20.202Z,8.93
2018-12-05T01:53:46.540Z,8.93
2018-12-05T01:56:12.838Z,8.93
2018-12-05T01:58:39.136Z,8.93
2018-12-05T02:01:05.427Z,8.92
2018-12-05T02:03:31.741Z,8.91
2018-12-05T02:05:58.054Z,8.91
2018-12-05T02:08:24.359Z,8.91
2018-12-05T02:10:50.687Z,8.91
2018-12-05T02:13:16.991Z,8.91
2018-12-05T02:15:43.312Z,8.91
2018-12-05T02:18:09.614Z,8.90
2018-12-05T02:20:35.951Z,8.90
2018-12-05T02:23:02.247Z,8.91
2018-12-05T02:25:28.546Z,8.90
2018-12-05T02:27:54.848Z,8.90
2018-12-05T02:30:21.142Z,8.90
2018-12-05T02:32:47.435Z,8.88
2018-12-05T02:35:13.740Z,8.89
2018-12-05T02:37:40.032Z,8.89
2018-12-05T02:40:06.335Z,8.89
2018-12-05T02:42:32.637Z,8.88
2018-12-05T02:44:58.923Z,8.88
2018-12-05T02:47:25.273Z,8.88
2018-12-05T02:49:51.553Z,8.88
2018-12-05T02:52:17.858Z,8.87
2018-12-05T02:54:44.145Z,8.87
2018-12-05T02:57:10.443Z,8.87
2018-12-05T02:59:36.738Z,8.86
2018-12-05T03:02:03.048Z,8.85
2018-12-05T03:04:29.332Z,8.87
2018-12-05T03:06:55.632Z,8.87
2018-12-05T03:09:21.925Z,8.85
2018-12-05T03:11:48.235Z,8.85
2018-12-05T03:14:14.511Z,8.85
2018-12-05T03:16:40.828Z,8.85
2018-12-05T03:19:07.099Z,8.85
2018-12-05T03:21:33.400Z,8.86
2018-12-05T03:23:59.697Z,8.86
2018-12-05T03:26:26.005Z,8.85
2018-12-05T03:28:52.334Z,8.85
2018-12-05T03:31:18.635Z,8.86
2018-12-05T03:33:44.928Z,8.84
2018-12-05T03:36:11.219Z,8.84
2018-12-05T03:38:37.511Z,8.85
2018-12-05T03:41:03.819Z,8.84
2018-12-05T03:43:30.094Z,8.84
2018-12-05T03:45:56.388Z,8.84
2018-12-05T03:48:22.691Z,8.83
2018-12-05T03:50:48.995Z,8.82
2018-12-05T03:53:15.280Z,8.82
2018-12-05T03:55:41.590Z,8.81
2018-12-05T03:58:07.876Z,8.81
2018-12-05T04:00:34.173Z,8.83
2018-12-05T04:03:00.468Z,8.82
2018-12-05T04:05:26.776Z,8.82
2018-12-05T04:07:53.066Z,8.81
2018-12-05T04:10:19.355Z,8.81
2018-12-05T04:12:45.651Z,8.81
2018-12-05T04:15:11.950Z,8.81
2018-12-05T04:17:38.243Z,8.81
2018-12-05T04:20:04.551Z,8.81
2018-12-05T04:22:30.830Z,8.81
2018-12-05T04:24:57.179Z,8.81
2018-12-05T04:27:23.469Z,8.79
2018-12-05T04:29:49.792Z,8.78
2018-12-05T04:32:16.105Z,8.78
2018-12-05T04:34:42.435Z,8.78
2018-12-05T04:37:08.753Z,8.77
2018-12-05T04:39:35.045Z,8.76
2018-12-05T04:42:01.347Z,8.76
2018-12-05T04:44:27.653Z,8.75
2018-12-05T04:46:53.946Z,8.77
2018-12-05T04:49:20.256Z,8.76
2018-12-05T04:51:46.548Z,8.77
2018-12-05T04:54:12.847Z,8.78
2018-12-05T04:56:39.164Z,8.78
2018-12-05T04:59:05.451Z,8.77
2018-12-05T05:01:31.738Z,8.75
2018-12-05T05:03:58.033Z,8.76
2018-12-05T05:06:24.331Z,8.77
2018-12-05T05:08:50.639Z,8.77
2018-12-05T05:11:16.925Z,8.77
2018-12-05T05:13:43.232Z,8.76
2018-12-05T05:16:09.511Z,8.76
2018-12-05T05:18:35.804Z,8.77
2018-12-05T05:21:02.116Z,9.78
2018-12-05T05:23:28.418Z,10.79
2018-12-05T05:25:54.748Z,10.91
2018-12-05T05:28:21.053Z,10.66
2018-12-05T05:30:47.347Z,10.43
2018-12-05T05:33:13.645Z,10.26
2018-12-05T05:35:39.947Z,10.13
2018-12-05T05:38:06.246Z,10.06
2018-12-05T05:40:32.522Z,10.02
2018-12-05T05:42:58.815Z,10.00
2018-12-05T05:45:25.117Z,10.00
2018-12-05T05:47:51.419Z,10.00
2018-12-05T05:50:17.707Z,10.01
2018-12-05T05:52:44.013Z,10.00
2018-12-05T05:55:10.349Z,10.00
2018-12-05T05:57:36.681Z,9.99
2018-12-05T06:00:06.847Z,9.99
2018-12-05T06:02:33.222Z,9.98
2018-12-05T06:04:59.539Z,9.85
2018-12-05T06:07:25.869Z,9.75
2018-12-05T06:09:52.160Z,9.67
2018-12-05T06:12:18.510Z,9.68
2018-12-05T06:14:44.853Z,9.75
2018-12-05T06:17:11.144Z,9.83
2018-12-05T06:19:37.478Z,9.87
2018-12-05T06:22:03.826Z,9.93
2018-12-05T06:24:30.884Z,9.97
2018-12-05T06:26:56.541Z,10.00
2018-12-05T06:29:22.870Z,10.03
2018-12-05T06:31:49.212Z,10.06
2018-12-05T06:34:15.536Z,10.08
2018-12-05T06:36:41.872Z,10.11
2018-12-05T06:39:08.217Z,10.14
2018-12-05T06:41:34.623Z,10.17
2018-12-05T06:44:00.951Z,10.20
2018-12-05T06:46:27.282Z,10.18
2018-12-05T06:48:53.719Z,10.17
2018-12-05T06:51:20.148Z,10.04
2018-12-05T06:53:46.504Z,9.95
2018-12-05T06:56:12.918Z,9.89
2018-12-05T06:58:39.237Z,9.93
2018-12-05T07:01:05.576Z,10.02
2018-12-05T07:03:31.925Z,10.09
2018-12-05T07:05:58.263Z,10.14
2018-12-05T07:08:24.554Z,10.19
2018-12-05T07:10:50.868Z,10.26
2018-12-05T07:13:17.157Z,10.29
2018-12-05T07:15:43.461Z,10.32
2018-12-05T07:18:09.752Z,10.35
2018-12-05T07:20:36.067Z,10.38
2018-12-05T07:23:02.346Z,10.41
2018-12-05T07:25:28.651Z,10.47
2018-12-05T07:27:54.938Z,10.50
2018-12-05T07:30:21.236Z,10.54
2018-12-05T07:32:47.542Z,10.57
2018-12-05T07:35:13.849Z,10.54
2018-12-05T07:37:40.122Z,10.47
2018-12-05T07:40:06.425Z,10.42
2018-12-05T07:42:32.767Z,10.41
2018-12-05T07:44:59.069Z,10.52
2018-12-05T07:47:25.382Z,10.63
2018-12-05T07:49:51.687Z,10.75
2018-12-05T07:52:17.968Z,10.84
2018-12-05T07:54:44.263Z,10.89
2018-12-05T07:57:10.733Z,10.95
2018-12-05T07:59:37.019Z,11.01
2018-12-05T08:02:03.313Z,11.30
2018-12-05T08:04:29.612Z,11.53
2018-12-05T08:06:55.901Z,11.76
2018-12-05T08:09:22.250Z,11.87
2018-12-05T08:11:48.579Z,11.93
2018-12-05T08:14:14.829Z,11.93
2018-12-05T08:16:41.142Z,11.92
2018-12-05T08:19:07.444Z,12.16
2018-12-05T08:21:33.736Z,12.73
2018-12-05T08:24:00.027Z,13.40
2018-12-05T08:26:26.353Z,13.99
2018-12-05T08:28:52.629Z,14.48
2018-12-05T08:31:18.943Z,14.92
2018-12-05T08:33:45.239Z,15.28
2018-12-05T08:36:11.534Z,15.59
2018-12-05T08:38:37.826Z,15.97
2018-12-05T08:41:04.142Z,16.35
2018-12-05T08:43:30.440Z,16.75
2018-12-05T08:45:56.735Z,17.10
2018-12-05T08:48:23.036Z,17.44
2018-12-05T08:50:49.364Z,17.71
2018-12-05T08:53:15.650Z,17.96
2018-12-05T08:55:41.965Z,18.19
2018-12-05T08:58:08.281Z,18.42
2018-12-05T09:00:34.584Z,18.52
2018-12-05T09:03:00.866Z,18.73
2018-12-05T09:05:27.199Z,18.96
2018-12-05T09:07:53.494Z,18.87
2018-12-05T09:10:19.794Z,18.69
2018-12-05T09:12:46.103Z,18.83
2018-12-05T09:15:12.399Z,19.04
2018-12-05T09:17:38.772Z,19.13
2018-12-05T09:20:05.045Z,19.10
2018-12-05T09:22:31.346Z,19.02
2018-12-05T09:24:57.640Z,18.82
2018-12-05T09:27:23.946Z,18.58
2018-12-05T09:29:50.238Z,18.26
2018-12-05T09:32:16.525Z,18.01
2018-12-05T09:34:42.829Z,17.73
2018-12-05T09:37:09.140Z,17.45
2018-12-05T09:39:35.447Z,17.22
2018-12-05T09:42:01.730Z,16.99
2018-12-05T09:44:28.031Z,16.80
2018-12-05T09:46:54.323Z,16.61
2018-12-05T09:49:20.628Z,16.42
2018-12-05T09:51:46.918Z,16.28
2018-12-05T09:54:13.222Z,16.13
2018-12-05T09:56:39.545Z,16.00
2018-12-05T09:59:05.857Z,15.88
2018-12-05T10:01:32.146Z,15.78
2018-12-05T10:03:58.459Z,15.71
2018-12-05T10:06:24.952Z,15.63
2018-12-05T10:08:51.252Z,15.54
2018-12-05T10:11:17.543Z,15.41
2018-12-05T10:13:43.850Z,15.22
2018-12-05T10:16:10.147Z,15.10
2018-12-05T10:18:36.438Z,15.09
2018-12-05T10:21:02.725Z,15.09
2018-12-05T10:23:29.036Z,15.06
2018-12-05T10:25:55.327Z,15.03
2018-12-05T10:28:21.638Z,15.00
2018-12-05T10:30:47.935Z,14.96
2018-12-05T10:33:14.221Z,14.94
2018-12-05T10:35:40.509Z,14.90
2018-12-05T10:38:06.816Z,14.89
2018-12-05T10:40:33.118Z,14.90
2018-12-05T10:42:59.422Z,14.89
2018-12-05T10:45:25.721Z,14.87
2018-12-05T10:47:52.057Z,14.85
2018-12-05T10:50:18.345Z,14.81
2018-12-05T10:52:44.650Z,14.78
2018-12-05T10:55:10.952Z,14.77
2018-12-05T10:57:37.252Z,14.74
2018-12-05T11:00:07.467Z,14.72
2018-12-05T11:02:33.777Z,14.67
2018-12-05T11:05:00.067Z,14.64
2018-12-05T11:07:26.378Z,14.63
2018-12-05T11:09:52.671Z,14.61
2018-12-05T11:12:18.970Z,14.61
2018-12-05T11:14:45.250Z,14.61
2018-12-05T11:17:11.559Z,14.50
2018-12-05T11:19:37.854Z,14.40
2018-12-05T11:22:04.191Z,14.40
2018-12-05T11:24:30.532Z,14.44
2018-12-05T11:26:56.826Z,14.48
2018-12-05T11:29:23.112Z,14.49
2018-12-05T11:31:49.425Z,14.49
2018-12-05T11:34:15.756Z,14.49
2018-12-05T11:36:42.047Z,14.48
2018-12-05T11:39:08.348Z,14.47
2018-12-05T11:41:34.670Z,14.46
2018-12-05T11:44:00.941Z,14.45
2018-12-05T11:46:27.247Z,14.42
2018-12-05T11:48:53.543Z,14.37
2018-12-05T11:51:19.834Z,14.37
2018-12-05T11:53:46.134Z,14.33
2018-12-05T11:56:12.485Z,14.30
2018-12-05T11:58:38.786Z,14.30
2018-12-05T12:01:05.089Z,14.30
2018-12-05T12:03:31.420Z,14.27
2018-12-05T12:05:57.685Z,14.26
2018-12-05T12:08:23.963Z,14.22
2018-12-05T12:10:50.293Z,14.19
2018-12-05T12:13:16.764Z,14.19
2018-12-05T12:15:43.024Z,14.18
2018-12-05T12:18:09.345Z,14.16
2018-12-05T12:20:35.724Z,14.09
2018-12-05T12:23:02.008Z,13.95
2018-12-05T12:25:28.329Z,13.84
2018-12-05T12:27:54.627Z,13.85
2018-12-05T12:30:20.970Z,13.85
2018-12-05T12:32:47.255Z,13.82
2018-12-05T12:35:13.564Z,13.84
2018-12-05T12:37:40.109Z,13.85
2018-12-05T12:40:06.429Z,13.82
2018-12-05T12:42:32.835Z,13.80
2018-12-05T12:44:59.091Z,13.79
2018-12-05T12:47:25.421Z,13.77
2018-12-05T12:49:51.727Z,13.73
2018-12-05T12:52:18.016Z,13.73
2018-12-05T12:54:44.370Z,13.74
2018-12-05T12:57:10.594Z,13.74
2018-12-05T12:59:36.945Z,13.72
2018-12-05T13:02:03.292Z,13.69
2018-12-05T13:04:29.609Z,13.65
2018-12-05T13:06:55.913Z,13.63
2018-12-05T13:09:22.197Z,13.65
2018-12-05T13:11:48.507Z,13.65
2018-12-05T13:14:14.800Z,13.62
2018-12-05T13:16:41.083Z,13.63
2018-12-05T13:19:07.392Z,13.61
2018-12-05T13:21:33.742Z,13.61
2018-12-05T13:24:00.049Z,13.60
2018-12-05T13:26:26.386Z,13.52
2018-12-05T13:28:52.682Z,13.38
2018-12-05T13:31:18.957Z,13.32
2018-12-05T13:33:45.264Z,13.32
2018-12-05T13:36:11.551Z,13.36
2018-12-05T13:38:37.880Z,13.37
2018-12-05T13:41:04.169Z,13.37
2018-12-05T13:43:30.471Z,13.34
2018-12-05T13:45:56.758Z,13.34
2018-12-05T13:48:23.065Z,13.34
2018-12-05T13:50:49.356Z,13.32
2018-12-05T13:53:15.643Z,13.30
2018-12-05T13:55:42.821Z,13.28
2018-12-05T13:58:09.204Z,13.28
2018-12-05T14:00:35.483Z,13.27
2018-12-05T14:03:01.796Z,13.26
2018-12-05T14:05:28.091Z,13.26
2018-12-05T14:07:54.678Z,13.25
2018-12-05T14:10:20.958Z,13.21
2018-12-05T14:12:47.823Z,13.16
2018-12-05T14:15:13.564Z,13.15
2018-12-05T14:17:39.900Z,13.15
2018-12-05T14:20:06.214Z,13.13
2018-12-05T14:22:32.505Z,13.13
2018-12-05T14:24:58.796Z,13.07
2018-12-05T14:27:25.111Z,13.06
2018-12-05T14:29:51.403Z,13.03
2018-12-05T14:32:17.700Z,12.98
2018-12-05T14:34:43.983Z,12.89
2018-12-05T14:37:10.293Z,12.86
2018-12-05T14:39:36.568Z,12.83
2018-12-05T14:42:02.910Z,12.82
2018-12-05T14:44:29.211Z,12.85
2018-12-05T14:46:55.498Z,12.85
2018-12-05T14:49:21.779Z,12.86
2018-12-05T14:51:48.084Z,12.86
2018-12-05T14:54:14.395Z,12.84
2018-12-05T14:56:40.733Z,12.81
2018-12-05T14:59:07.030Z,12.79
2018-12-05T15:01:33.325Z,12.76
2018-12-05T15:03:59.648Z,12.75
2018-12-05T15:06:25.951Z,12.73
2018-12-05T15:08:52.242Z,12.70
2018-12-05T15:11:18.562Z,12.68
2018-12-05T15:13:44.826Z,12.68
2018-12-05T15:16:11.174Z,12.68
2018-12-05T15:18:37.457Z,12.68
2018-12-05T15:21:03.817Z,12.66
2018-12-05T15:23:30.115Z,12.63
2018-12-05T15:25:56.406Z,12.59
2018-12-05T15:28:22.701Z,12.59
2018-12-05T15:30:49.052Z,12.59
2018-12-05T15:33:15.354Z,12.59
2018-12-05T15:35:41.639Z,12.59
2018-12-05T15:38:08.173Z,12.51
2018-12-05T15:40:34.465Z,12.43
2018-12-05T15:43:00.817Z,12.40
2018-12-05T15:45:27.111Z,12.39
2018-12-05T15:47:53.443Z,12.38
2018-12-05T15:50:19.734Z,12.37
2018-12-05T15:52:46.023Z,12.39
2018-12-05T15:55:12.326Z,12.40
2018-12-05T15:57:38.603Z,12.41
2018-12-05T16:00:05.869Z,12.38
2018-12-05T16:02:32.166Z,12.35
2018-12-05T16:04:58.453Z,12.33
2018-12-05T16:07:24.733Z,12.31
2018-12-05T16:09:51.034Z,12.29
2018-12-05T16:12:17.335Z,12.30
2018-12-05T16:14:43.624Z,12.28
2018-12-05T16:17:09.918Z,12.29
2018-12-05T16:19:36.204Z,12.29
2018-12-05T16:22:02.494Z,12.25
2018-12-05T16:24:28.790Z,12.24
2018-12-05T16:26:55.082Z,12.19
2018-12-05T16:29:21.382Z,12.12
2018-12-05T16:31:47.672Z,12.07
2018-12-05T16:34:14.004Z,12.00
2018-12-05T16:36:40.280Z,12.06
2018-12-05T16:39:06.612Z,12.07
2018-12-05T16:41:32.880Z,12.08
2018-12-05T16:44:00.538Z,12.09
2018-12-05T16:46:25.465Z,12.08
2018-12-05T16:48:51.775Z,12.08
2018-12-05T16:51:18.113Z,12.07
2018-12-05T16:53:44.486Z,12.06
2018-12-05T16:56:10.777Z,12.07
2018-12-05T16:58:37.061Z,12.06
2018-12-05T17:01:03.387Z,12.06
2018-12-05T17:03:29.777Z,12.05
2018-12-05T17:05:56.004Z,12.04
2018-12-05T17:08:22.295Z,12.03
2018-12-05T17:10:48.593Z,11.97
2018-12-05T17:13:14.907Z,11.90
2018-12-05T17:15:41.219Z,11.82
2018-12-05T17:18:07.498Z,12.03
2018-12-05T17:20:33.802Z,12.14
2018-12-05T17:23:00.102Z,12.03
2018-12-05T17:25:26.432Z,11.97
2018-12-05T17:27:52.747Z,11.90
2018-12-05T17:30:20.257Z,11.80
2018-12-05T17:32:46.554Z,11.73
2018-12-05T17:35:12.853Z,11.69
2018-12-05T17:37:39.145Z,11.65
2018-12-05T17:40:05.475Z,11.63
2018-12-05T17:42:31.780Z,11.59
2018-12-05T17:44:58.086Z,11.57
2018-12-05T17:47:24.390Z,11.54
2018-12-05T17:49:50.717Z,11.51
2018-12-05T17:52:17.066Z,11.44
2018-12-05T17:54:43.352Z,11.81
2018-12-05T17:57:09.676Z,12.52
2018-12-05T17:59:35.968Z,12.93
2018-12-05T18:02:02.277Z,12.09
2018-12-05T18:04:28.554Z,12.05
2018-12-05T18:06:54.860Z,11.93
2018-12-05T18:09:21.155Z,11.86
2018-12-05T18:11:47.446Z,11.78
2018-12-05T18:14:13.769Z,11.71
2018-12-05T18:16:40.033Z,11.64
2018-12-05T18:19:06.353Z,11.58
2018-12-05T18:21:32.674Z,11.54
2018-12-05T18:23:58.949Z,11.49
2018-12-05T18:26:25.295Z,11.45
2018-12-05T18:28:51.593Z,11.41
2018-12-05T18:31:18.108Z,11.37
2018-12-05T18:33:44.422Z,11.36
2018-12-05T18:36:10.702Z,11.32
2018-12-05T18:38:37.005Z,11.30
2018-12-05T18:41:03.305Z,11.28
2018-12-05T18:43:29.970Z,11.26
2018-12-05T18:45:56.250Z,11.20
2018-12-05T18:48:22.604Z,11.18
2018-12-05T18:50:48.902Z,11.15
2018-12-05T18:53:15.240Z,11.14
2018-12-05T18:55:41.543Z,11.11
2018-12-05T18:58:07.843Z,11.08
2018-12-05T19:00:34.164Z,11.05
2018-12-05T19:03:00.549Z,11.02
2018-12-05T19:05:26.769Z,10.99
2018-12-05T19:07:53.901Z,10.95
2018-12-05T19:10:20.235Z,10.94
2018-12-05T19:12:47.069Z,10.91
2018-12-05T19:15:14.040Z,10.90
2018-12-05T19:17:40.959Z,10.87
2018-12-05T19:20:08.006Z,10.84
2018-12-05T19:22:34.849Z,10.83
2018-12-05T19:25:01.780Z,10.80
2018-12-05T19:27:28.681Z,10.91
2018-12-05T19:29:55.686Z,11.01
2018-12-05T19:32:22.645Z,11.06
2018-12-05T19:34:48.942Z,11.01
2018-12-05T19:37:15.263Z,10.95
2018-12-05T19:39:41.563Z,10.89
2018-12-05T19:42:07.869Z,10.93
2018-12-05T19:44:34.177Z,10.97
2018-12-05T19:47:00.554Z,10.92
2018-12-05T19:49:26.915Z,10.88
2018-12-05T19:51:53.253Z,10.84
2018-12-05T19:54:19.540Z,10.80
2018-12-05T19:56:45.880Z,10.77
2018-12-05T19:59:12.205Z,10.78
2018-12-05T20:01:38.515Z,10.76
2018-12-05T20:04:04.845Z,10.74
2018-12-05T20:06:31.135Z,10.70
2018-12-05T20:08:57.441Z,10.67
2018-12-05T20:11:23.766Z,10.64
2018-12-05T20:13:50.074Z,10.62
2018-12-05T20:16:16.437Z,10.59
2018-12-05T20:18:42.807Z,10.56
2018-12-05T20:21:09.130Z,10.55
2018-12-05T20:23:35.428Z,10.54
2018-12-05T20:26:01.737Z,10.65
2018-12-05T20:28:28.293Z,10.66
2018-12-05T20:30:54.606Z,10.63
2018-12-05T20:33:20.886Z,10.60
2018-12-05T20:35:47.195Z,10.56
2018-12-05T20:38:13.496Z,10.53
2018-12-05T20:40:39.896Z,10.49
2018-12-05T20:43:06.079Z,10.46
2018-12-05T20:45:32.436Z,10.43
2018-12-05T20:47:58.817Z,10.41
2018-12-05T20:50:25.409Z,10.41
2018-12-05T20:52:51.780Z,10.37
2018-12-05T20:55:18.242Z,10.35
2018-12-05T20:57:44.585Z,10.33
2018-12-05T21:00:10.881Z,10.31
2018-12-05T21:02:37.182Z,10.29
2018-12-05T21:05:03.544Z,10.26
2018-12-05T21:07:29.837Z,10.23
2018-12-05T21:09:56.176Z,10.23
2018-12-05T21:12:22.473Z,10.20
2018-12-05T21:14:48.769Z,10.19
2018-12-05T21:17:15.067Z,10.17
2018-12-05T21:19:41.394Z,10.17
2018-12-05T21:22:07.677Z,10.16
2018-12-05T21:24:33.974Z,10.14
2018-12-05T21:27:00.273Z,10.13
2018-12-05T21:29:26.562Z,10.11
2018-12-05T21:31:52.856Z,10.11
2018-12-05T21:34:19.168Z,10.09
2018-12-05T21:36:45.450Z,10.07
2018-12-05T21:39:11.750Z,10.06
2018-12-05T21:41:38.045Z,10.04
2018-12-05T21:44:04.378Z,10.01
2018-12-05T21:46:30.681Z,10.01
2018-12-05T21:48:57.005Z,9.99
2018-12-05T21:51:23.288Z,9.97
2018-12-05T21:53:49.583Z,9.95
2018-12-05T21:56:15.872Z,9.94
2018-12-05T21:58:42.173Z,9.93
2018-12-05T22:01:08.444Z,9.91
2018-12-05T22:03:34.776Z,9.91
2018-12-05T22:06:01.086Z,9.90
2018-12-05T22:08:27.383Z,9.88
2018-12-05T22:10:53.860Z,9.88
2018-12-05T22:13:21.389Z,9.87
2018-12-05T22:15:47.661Z,9.85
2018-12-05T22:18:13.975Z,9.83
2018-12-05T22:20:40.335Z,9.81
2018-12-05T22:23:06.658Z,9.82
2018-12-05T22:25:32.929Z,9.80
2018-12-05T22:27:59.234Z,9.79
2018-12-05T22:30:25.518Z,9.76
2018-12-05T22:32:51.811Z,9.76
2018-12-05T22:35:18.105Z,9.75
2018-12-05T22:37:44.409Z,9.74
2018-12-05T22:40:10.712Z,9.73
2018-12-05T22:42:36.998Z,9.71
2018-12-05T22:45:03.298Z,9.70
2018-12-05T22:47:29.609Z,9.68
2018-12-05T22:49:55.908Z,9.67
2018-12-05T22:52:22.208Z,9.65
2018-12-05T22:54:48.481Z,9.65
2018-12-05T22:57:14.799Z,9.64
2018-12-05T22:59:41.141Z,9.61
2018-12-05T23:02:07.441Z,9.59
2018-12-05T23:04:33.720Z,9.58
2018-12-05T23:07:00.028Z,9.57
2018-12-05T23:09:26.315Z,9.56
2018-12-05T23:11:52.635Z,9.55
2018-12-05T23:14:18.967Z,9.54
2018-12-05T23:16:45.263Z,9.53
2018-12-05T23:19:11.579Z,9.53
2018-12-05T23:21:37.872Z,9.52
2018-12-05T23:24:04.172Z,9.49
2018-12-05T23:26:30.464Z,9.48
2018-12-05T23:28:56.759Z,9.47
2018-12-05T23:31:23.063Z,9.47
2018-12-05T23:33:49.351Z,9.45
2018-12-05T23:36:15.650Z,9.43
2018-12-05T23:38:41.961Z,9.42
2018-12-05T23:41:08.257Z,9.39
2018-12-05T23:43:34.609Z,9.39
2018-12-05T23:46:00.898Z,9.38
2018-12-05T23:48:27.188Z,9.36
2018-12-05T23:50:53.596Z,9.35
2018-12-05T23:53:19.872Z,9.34
2018-12-05T23:55:46.187Z,9.33
2018-12-05T23:58:12.539Z,9.32
